createdAt,value
2023-03-05T00:02:57.798Z,63.82
2023-03-05T00:08:04.952Z,64.00
2023-03-05T00:13:10.804Z,64.17
2023-03-05T00:18:17.002Z,64.06
2023-03-05T00:23:22.826Z,64.12
2023-03-05T00:28:28.642Z,63.95
2023-03-05T00:33:34.415Z,63.94
2023-03-05T00:38:40.767Z,63.89
2023-03-05T00:43:47.253Z,63.93
2023-03-05T00:48:53.291Z,63.96
2023-03-05T00:53:59.408Z,64.03
2023-03-05T00:59:06.266Z,64.22
2023-03-05T01:04:12.472Z,64.35
2023-03-05T01:09:19.527Z,64.87
2023-03-05T01:14:27.792Z,65.42
2023-03-05T01:19:33.663Z,65.89
2023-03-05T01:24:39.491Z,66.42
2023-03-05T01:29:45.796Z,66.82
2023-03-05T01:34:51.841Z,67.29
2023-03-05T01:39:57.612Z,67.40
2023-03-05T01:45:07.084Z,67.73
2023-03-05T01:50:16.141Z,68.16
2023-03-05T01:55:25.660Z,68.55
2023-03-05T02:00:35.867Z,69.06
2023-03-05T02:05:44.427Z,69.41
2023-03-05T02:10:53.023Z,69.75
2023-03-05T02:16:01.807Z,70.14
2023-03-05T02:21:08.753Z,70.60
2023-03-05T02:26:14.896Z,70.95
2023-03-05T02:31:23.282Z,71.16
2023-03-05T02:36:29.283Z,71.36
2023-03-05T02:41:35.383Z,71.51
2023-03-05T02:46:41.397Z,71.51
2023-03-05T02:51:47.262Z,71.71
2023-03-05T02:56:53.077Z,72.12
2023-03-05T03:02:01.083Z,72.38
2023-03-05T03:07:07.439Z,72.53
2023-03-05T03:12:13.408Z,72.80
2023-03-05T03:17:20.120Z,73.07
2023-03-05T03:22:26.066Z,73.28
2023-03-05T03:27:31.968Z,73.51
2023-03-05T03:32:37.869Z,73.88
2023-03-05T03:37:43.926Z,74.22
2023-03-05T03:42:51.139Z,74.62
2023-03-05T03:47:57.251Z,74.72
2023-03-05T03:53:03.863Z,74.95
2023-03-05T03:58:09.670Z,75.04
2023-03-05T04:03:15.566Z,74.87
2023-03-05T04:08:21.672Z,74.63
2023-03-05T04:13:27.581Z,74.41
2023-03-05T04:18:33.734Z,74.34
2023-03-05T04:23:39.764Z,74.44
2023-03-05T04:28:46.589Z,74.49
2023-03-05T04:33:52.421Z,74.54
2023-03-05T04:38:58.367Z,74.68
2023-03-05T04:44:05.238Z,74.75
2023-03-05T04:49:11.052Z,74.81
2023-03-05T04:54:17.057Z,74.75
2023-03-05T04:59:22.897Z,74.87
2023-03-05T05:04:28.841Z,74.90
2023-03-05T05:09:35.013Z,75.00
2023-03-05T05:14:40.781Z,75.04
2023-03-05T05:19:46.788Z,75.09
2023-03-05T05:24:52.524Z,75.12
2023-03-05T05:29:58.641Z,74.86
2023-03-05T05:35:05.515Z,74.75
2023-03-05T05:40:13.195Z,74.60
2023-03-05T05:45:19.472Z,74.28
2023-03-05T05:50:25.367Z,74.16
2023-03-05T05:55:31.332Z,74.12
2023-03-05T06:00:38.465Z,74.15
2023-03-05T06:05:44.894Z,74.15
2023-03-05T06:10:56.304Z,73.79
2023-03-05T06:16:03.854Z,73.61
2023-03-05T06:21:11.771Z,71.84
2023-03-05T06:26:20.156Z,67.53
2023-03-05T06:31:27.731Z,62.15
2023-03-05T06:36:33.904Z,58.44
2023-03-05T06:41:40.055Z,56.65
2023-03-05T06:46:45.856Z,54.91
2023-03-05T06:51:51.457Z,54.31
2023-03-05T06:56:57.326Z,54.12
2023-03-05T07:02:04.470Z,54.05
2023-03-05T07:07:10.188Z,54.39
2023-03-05T07:12:16.709Z,53.39
2023-03-05T07:17:22.640Z,53.04
2023-03-05T07:22:28.914Z,51.62
2023-03-05T07:27:38.473Z,49.43
2023-03-05T07:32:44.424Z,48.15
2023-03-05T07:37:50.531Z,48.36
2023-03-05T07:42:56.832Z,48.41
2023-03-05T07:48:08.553Z,47.95
2023-03-05T07:53:15.635Z,48.18
2023-03-05T07:58:22.065Z,48.41
2023-03-05T08:03:28.336Z,48.25
2023-03-05T08:08:34.405Z,49.21
2023-03-05T08:13:41.045Z,49.68
2023-03-05T08:18:47.694Z,50.14
2023-03-05T08:23:53.372Z,50.66
2023-03-05T08:28:59.825Z,51.36
2023-03-05T08:34:07.571Z,52.38
2023-03-05T08:39:13.492Z,53.33
2023-03-05T08:44:19.425Z,53.70
2023-03-05T08:49:25.582Z,54.34
2023-03-05T08:54:31.151Z,55.12
2023-03-05T08:59:36.947Z,55.60
2023-03-05T09:04:42.848Z,55.80
2023-03-05T09:09:48.733Z,56.45
2023-03-05T09:14:57.292Z,56.89
2023-03-05T09:20:04.200Z,57.09
2023-03-05T09:25:12.960Z,57.56
2023-03-05T09:30:19.707Z,58.11
2023-03-05T09:35:25.875Z,58.21
2023-03-05T09:40:42.230Z,58.53
2023-03-05T09:46:02.368Z,58.79
2023-03-05T09:51:16.820Z,59.19
2023-03-05T09:56:26.710Z,59.56
2023-03-05T10:01:39.679Z,59.95
2023-03-05T10:06:53.636Z,59.69
2023-03-05T10:12:03.572Z,59.89
2023-03-05T10:17:40.109Z,59.64
2023-03-05T10:23:04.249Z,59.42
2023-03-05T10:28:17.989Z,59.26
2023-03-05T10:33:35.089Z,59.68
2023-03-05T10:38:59.967Z,59.90
2023-03-05T10:44:15.833Z,60.03
2023-03-05T10:49:26.796Z,60.26
2023-03-05T10:54:35.982Z,60.16
2023-03-05T10:59:46.866Z,60.76
2023-03-05T11:04:54.504Z,61.50
2023-03-05T11:10:17.614Z,62.17
2023-03-05T11:15:30.481Z,62.46
2023-03-05T11:20:37.766Z,62.71
2023-03-05T11:26:01.975Z,62.83
2023-03-05T11:31:21.612Z,63.69
2023-03-05T11:36:30.999Z,64.93
2023-03-05T11:41:40.688Z,65.40
2023-03-05T11:46:51.009Z,66.15
2023-03-05T11:52:06.705Z,67.57
2023-03-05T11:57:16.861Z,68.97
2023-03-05T12:02:25.986Z,70.06
2023-03-05T12:07:37.565Z,70.75
2023-03-05T12:12:48.988Z,71.34
2023-03-05T12:18:07.143Z,71.67
2023-03-05T12:23:18.528Z,72.52
2023-03-05T12:28:57.604Z,73.09
2023-03-05T12:34:47.368Z,74.64
2023-03-05T12:40:01.203Z,76.26
2023-03-05T12:45:29.124Z,77.11
2023-03-05T12:50:59.334Z,78.46
2023-03-05T12:56:17.091Z,79.55
2023-03-05T13:01:36.064Z,80.07
2023-03-05T13:06:42.925Z,80.20
2023-03-05T13:11:55.365Z,80.52
2023-03-05T13:17:03.064Z,80.77
2023-03-05T13:22:13.364Z,80.78
2023-03-05T13:27:29.469Z,81.11
2023-03-05T13:32:35.914Z,80.90
2023-03-05T13:37:43.837Z,81.17
2023-03-05T13:42:53.225Z,81.14
2023-03-05T13:48:01.247Z,81.55
2023-03-05T13:53:21.088Z,82.08
2023-03-05T13:58:49.583Z,81.96
2023-03-05T14:03:58.006Z,82.11
2023-03-05T14:09:18.761Z,81.26
2023-03-05T14:14:26.370Z,80.68
2023-03-05T14:19:38.408Z,80.62
2023-03-05T14:24:53.155Z,80.91
2023-03-05T14:29:59.609Z,81.55
2023-03-05T14:35:07.489Z,81.40
2023-03-05T14:40:26.291Z,81.45
2023-03-05T14:45:33.518Z,81.10
2023-03-05T14:50:43.196Z,81.21
2023-03-05T14:55:56.057Z,81.28
2023-03-05T15:01:03.490Z,81.40
2023-03-05T15:06:16.121Z,81.23
2023-03-05T15:11:23.235Z,81.33
2023-03-05T15:16:30.500Z,81.38
2023-03-05T15:21:37.917Z,81.55
2023-03-05T15:26:43.819Z,81.64
2023-03-05T15:31:52.730Z,81.80
2023-03-05T15:36:58.557Z,82.05
2023-03-05T15:42:06.396Z,81.99
2023-03-05T15:47:12.512Z,81.54
2023-03-05T15:52:18.165Z,81.32
2023-03-05T15:57:24.403Z,81.29
2023-03-05T16:02:30.118Z,81.44
2023-03-05T16:07:39.829Z,81.75
2023-03-05T16:12:48.441Z,81.91
2023-03-05T16:17:56.574Z,82.01
2023-03-05T16:23:04.145Z,82.42
2023-03-05T16:28:10.942Z,82.95
2023-03-05T16:33:16.762Z,83.22
2023-03-05T16:38:22.622Z,83.53
2023-03-05T16:43:28.811Z,83.75
2023-03-05T16:48:35.858Z,83.96
2023-03-05T16:53:42.526Z,83.87
2023-03-05T16:58:50.494Z,84.05
2023-03-05T17:03:59.689Z,84.11
2023-03-05T17:09:05.724Z,84.30
2023-03-05T17:14:11.540Z,84.30
2023-03-05T17:19:17.696Z,84.60
2023-03-05T17:24:23.571Z,85.01
2023-03-05T17:29:29.573Z,85.19
2023-03-05T17:34:36.943Z,85.74
2023-03-05T17:39:43.000Z,86.43
2023-03-05T17:44:50.300Z,86.96
2023-03-05T17:49:56.717Z,87.68
2023-03-05T17:55:02.830Z,88.36
2023-03-05T18:00:15.182Z,88.90
2023-03-05T18:05:23.565Z,89.41
2023-03-05T18:10:31.165Z,89.77
2023-03-05T18:15:40.519Z,90.36
2023-03-05T18:20:48.713Z,90.88
2023-03-05T18:25:54.755Z,91.49
2023-03-05T18:31:01.111Z,92.03
2023-03-05T18:36:10.785Z,92.61
2023-03-05T18:41:22.422Z,93.20
2023-03-05T18:46:28.575Z,93.65
2023-03-05T18:51:36.343Z,94.55
2023-03-05T18:56:42.464Z,95.05
2023-03-05T19:01:48.598Z,95.31
2023-03-05T19:06:55.185Z,95.72
2023-03-05T19:12:01.143Z,96.01
2023-03-05T19:17:06.780Z,96.26
2023-03-05T19:22:12.933Z,96.53
2023-03-05T19:27:18.881Z,96.66
2023-03-05T19:32:25.098Z,96.41
2023-03-05T19:37:32.276Z,96.32
2023-03-05T19:42:39.093Z,96.77
2023-03-05T19:47:45.256Z,96.76
2023-03-05T19:52:51.255Z,96.87
2023-03-05T19:57:57.385Z,96.59
2023-03-05T20:03:03.713Z,96.26
2023-03-05T20:08:09.741Z,96.21
2023-03-05T20:13:15.518Z,96.46
2023-03-05T20:18:21.922Z,96.92
2023-03-05T20:23:31.350Z,97.33
2023-03-05T20:28:37.111Z,97.90
2023-03-05T20:33:42.972Z,98.20
2023-03-05T20:38:49.085Z,98.31
2023-03-05T20:43:55.775Z,98.55
2023-03-05T20:49:03.814Z,99.08
2023-03-05T20:54:12.227Z,99.53
2023-03-05T20:59:18.070Z,99.52
2023-03-05T21:04:23.749Z,99.90
2023-03-05T21:09:29.588Z,99.98
2023-03-05T21:14:38.140Z,100.00
2023-03-05T21:19:44.104Z,100.00
2023-03-05T21:25:20.937Z,100.00
2023-03-05T21:30:31.947Z,100.00
2023-03-05T21:35:38.923Z,100.00
2023-03-05T21:40:48.635Z,100.00
2023-03-05T21:45:57.229Z,99.93
2023-03-05T21:51:38.342Z,99.29
2023-03-05T21:56:54.503Z,98.82
2023-03-05T22:02:00.733Z,98.66
2023-03-05T22:07:07.140Z,98.56
2023-03-05T22:13:05.854Z,98.78
2023-03-05T22:18:12.087Z,98.88
2023-03-05T22:23:19.698Z,98.91
2023-03-05T22:28:26.228Z,98.17
2023-03-05T22:33:32.613Z,98.10
2023-03-05T22:38:38.658Z,98.21
2023-03-05T22:43:44.656Z,98.36
2023-03-05T22:48:52.719Z,98.50
2023-03-05T22:53:58.642Z,98.28
2023-03-05T22:59:04.680Z,97.80
2023-03-05T23:04:57.631Z,97.45
2023-03-05T23:10:07.201Z,97.34
2023-03-05T23:15:16.484Z,97.54
2023-03-05T23:20:24.205Z,97.73
2023-03-05T23:25:32.881Z,98.22
2023-03-05T23:30:39.495Z,98.98
2023-03-05T23:35:52.852Z,99.66
2023-03-05T23:41:01.399Z,99.91
2023-03-05T23:46:11.996Z,99.98
2023-03-05T23:51:18.130Z,100.00
2023-03-05T23:56:24.186Z,100.00
